createdAt,value
2022-10-02T00:04:54.285Z,90.05
2022-10-02T00:10:01.463Z,89.38
2022-10-02T00:15:13.590Z,87.70
2022-10-02T00:20:19.460Z,87.11
2022-10-02T00:25:50.639Z,86.67
2022-10-02T00:31:18.330Z,87.07
2022-10-02T00:36:46.103Z,86.99
2022-10-02T00:42:00.960Z,87.85
2022-10-02T00:47:20.044Z,87.58
2022-10-02T00:59:00.306Z,87.47
2022-10-02T01:04:08.515Z,89.14
2022-10-02T01:09:12.619Z,89.96
2022-10-02T01:14:16.533Z,90.74
2022-10-02T01:19:39.961Z,91.56
2022-10-02T01:24:53.680Z,92.38
2022-10-02T01:30:07.900Z,93.40
2022-10-02T01:35:11.386Z,93.71
2022-10-02T01:40:43.501Z,94.44
2022-10-02T01:45:57.490Z,95.18
2022-10-02T01:51:22.770Z,95.59
2022-10-02T01:56:49.834Z,96.10
2022-10-02T02:02:10.163Z,96.32
2022-10-02T02:07:16.405Z,96.82
2022-10-02T02:12:26.897Z,97.06
2022-10-02T02:17:59.744Z,96.92
2022-10-02T02:23:18.231Z,97.76
2022-10-02T02:28:23.871Z,97.98
2022-10-02T02:33:36.861Z,98.30
2022-10-02T02:38:49.554Z,98.95
2022-10-02T02:44:24.590Z,99.01
2022-10-02T02:49:31.889Z,98.83
2022-10-02T02:54:43.693Z,99.15
2022-10-02T02:59:52.030Z,99.17
2022-10-02T03:04:54.948Z,99.76
2022-10-02T03:10:09.848Z,99.61
2022-10-02T03:15:55.514Z,99.55
2022-10-02T03:21:28.388Z,99.90
2022-10-02T03:26:42.129Z,100.00
2022-10-02T03:31:46.529Z,99.99
2022-10-02T03:36:50.948Z,100.00
2022-10-02T03:41:54.685Z,100.00
2022-10-02T03:46:58.276Z,100.00
2022-10-02T03:52:01.476Z,100.00
2022-10-02T03:57:08.561Z,100.00
2022-10-02T04:02:24.350Z,100.00
2022-10-02T04:07:34.444Z,100.00
2022-10-02T04:12:42.960Z,100.00
2022-10-02T04:17:58.928Z,100.00
2022-10-02T04:23:27.103Z,100.00
2022-10-02T04:28:39.814Z,100.00
2022-10-02T04:33:42.871Z,100.00
2022-10-02T04:39:19.801Z,100.00
2022-10-02T04:45:05.662Z,100.00
2022-10-02T04:50:17.558Z,100.00
2022-10-02T04:55:51.430Z,100.00
2022-10-02T05:01:16.094Z,100.00
2022-10-02T05:06:55.083Z,100.00
2022-10-02T05:12:16.289Z,100.00
2022-10-02T05:17:42.775Z,100.00
2022-10-02T05:22:49.056Z,99.69
2022-10-02T05:28:30.621Z,99.38
2022-10-02T05:33:54.992Z,97.32
2022-10-02T05:38:58.315Z,94.00
2022-10-02T05:44:15.906Z,92.01
2022-10-02T05:49:20.752Z,88.82
2022-10-02T05:54:36.426Z,85.65
2022-10-02T06:00:17.511Z,83.58
2022-10-02T06:06:00.496Z,82.54
2022-10-02T06:11:12.075Z,66.40
2022-10-02T06:16:27.636Z,63.49
2022-10-02T06:21:40.749Z,57.38
2022-10-02T06:26:53.311Z,54.41
2022-10-02T06:32:23.350Z,50.91
2022-10-02T06:37:56.871Z,46.99
2022-10-02T06:43:13.482Z,46.68
2022-10-02T06:48:46.465Z,43.24
2022-10-02T06:54:32.822Z,46.48
2022-10-02T06:59:59.909Z,44.72
2022-10-02T07:05:27.593Z,42.36
2022-10-02T07:10:43.560Z,38.43
2022-10-02T07:16:08.729Z,38.32
2022-10-02T07:21:39.686Z,33.90
2022-10-02T07:26:59.205Z,28.17
2022-10-02T07:32:24.485Z,36.51
2022-10-02T07:38:10.518Z,34.87
2022-10-02T07:43:40.734Z,33.39
2022-10-02T07:49:08.343Z,36.01
2022-10-02T07:54:45.915Z,34.94
2022-10-02T07:59:52.054Z,32.55
2022-10-02T08:04:59.839Z,33.12
2022-10-02T08:10:10.397Z,33.25
2022-10-02T08:15:18.118Z,31.83
2022-10-02T08:20:45.434Z,31.72
2022-10-02T08:26:06.485Z,33.28
2022-10-02T08:31:12.256Z,33.28
2022-10-02T08:36:44.078Z,30.54
2022-10-02T08:41:49.938Z,30.44
2022-10-02T08:47:06.438Z,30.17
2022-10-02T08:52:29.483Z,31.29
2022-10-02T08:57:43.429Z,30.55
2022-10-02T09:03:07.877Z,29.92
2022-10-02T09:08:23.106Z,29.65
2022-10-02T09:13:45.616Z,30.16
2022-10-02T09:19:03.899Z,31.89
2022-10-02T09:24:46.799Z,34.05
2022-10-02T09:30:21.112Z,32.42
2022-10-02T09:35:39.668Z,30.18
2022-10-02T09:40:49.102Z,30.14
2022-10-02T09:46:13.518Z,28.98
2022-10-02T09:51:26.455Z,33.10
2022-10-02T09:57:07.528Z,31.09
2022-10-02T10:02:26.604Z,31.80
2022-10-02T10:08:32.919Z,34.08
2022-10-02T10:14:07.151Z,33.20
2022-10-02T10:19:47.138Z,32.57
2022-10-02T10:25:02.793Z,31.32
2022-10-02T10:30:37.721Z,33.86
2022-10-02T10:35:54.121Z,35.16
2022-10-02T10:41:06.528Z,35.10
2022-10-02T10:46:47.030Z,35.27
2022-10-02T10:51:59.989Z,35.43
2022-10-02T10:57:26.209Z,35.13
2022-10-02T11:03:08.019Z,36.48
2022-10-02T11:08:35.594Z,38.06
2022-10-02T11:13:42.340Z,37.97
2022-10-02T11:18:54.429Z,38.07
2022-10-02T11:24:10.426Z,36.45
2022-10-02T11:29:44.414Z,36.17
2022-10-02T11:35:20.199Z,36.54
2022-10-02T11:40:41.805Z,35.04
2022-10-02T11:46:07.831Z,35.56
2022-10-02T11:51:13.741Z,36.29
2022-10-02T11:56:36.515Z,38.35
2022-10-02T12:02:01.935Z,35.70
2022-10-02T12:07:32.255Z,36.93
2022-10-02T12:13:18.227Z,35.80
2022-10-02T12:19:20.352Z,36.09
2022-10-02T12:24:54.995Z,36.52
2022-10-02T12:30:17.705Z,36.76
2022-10-02T12:35:32.589Z,39.65
2022-10-02T12:40:54.864Z,37.20
2022-10-02T12:46:17.497Z,37.17
2022-10-02T12:51:35.957Z,36.52
2022-10-02T12:57:01.132Z,38.59
2022-10-02T13:02:49.068Z,38.48
2022-10-02T13:08:18.839Z,39.01
2022-10-02T13:13:40.281Z,38.00
2022-10-02T13:19:01.507Z,37.75
2022-10-02T13:24:39.318Z,39.24
2022-10-02T13:30:03.974Z,37.73
2022-10-02T13:35:28.475Z,37.79
2022-10-02T13:41:02.474Z,37.83
2022-10-02T13:46:48.758Z,38.11
2022-10-02T13:51:51.881Z,38.64
2022-10-02T13:57:16.708Z,36.96
2022-10-02T14:02:39.829Z,36.91
2022-10-02T14:08:02.030Z,37.24
2022-10-02T14:13:40.150Z,38.50
2022-10-02T14:19:22.355Z,38.77
2022-10-02T14:25:03.990Z,39.13
2022-10-02T14:30:22.276Z,40.76
2022-10-02T14:35:36.009Z,38.22
2022-10-02T14:41:02.606Z,39.66
2022-10-02T14:46:21.136Z,39.35
2022-10-02T14:52:01.544Z,39.97
2022-10-02T14:57:22.792Z,40.26
2022-10-02T15:02:48.529Z,41.95
2022-10-02T15:07:52.817Z,41.74
2022-10-02T15:13:03.554Z,41.89
2022-10-02T15:18:42.236Z,43.44
2022-10-02T15:23:51.782Z,43.15
2022-10-02T15:29:31.325Z,44.31
2022-10-02T15:35:09.691Z,44.98
2022-10-02T15:40:22.220Z,46.31
2022-10-02T15:45:37.813Z,46.27
2022-10-02T15:50:56.364Z,47.96
2022-10-02T15:56:12.052Z,48.88
2022-10-02T16:01:43.764Z,51.41
2022-10-02T16:06:53.488Z,52.07
2022-10-02T16:12:13.327Z,52.32
2022-10-02T16:17:32.275Z,53.44
2022-10-02T16:23:00.659Z,55.80
2022-10-02T16:28:10.704Z,55.91
2022-10-02T16:33:26.379Z,57.65
2022-10-02T16:38:55.000Z,58.31
2022-10-02T16:44:09.304Z,59.59
2022-10-02T16:49:34.075Z,61.89
2022-10-02T16:55:03.571Z,62.17
2022-10-02T17:00:23.241Z,63.71
2022-10-02T17:05:30.229Z,66.85
2022-10-02T17:11:06.208Z,65.45
2022-10-02T17:16:21.538Z,67.57
2022-10-02T17:21:51.483Z,64.79
2022-10-02T17:27:20.290Z,67.58
2022-10-02T17:32:52.268Z,68.21
2022-10-02T17:38:21.594Z,70.42
2022-10-02T17:43:31.843Z,71.55
2022-10-02T17:48:53.101Z,71.13
2022-10-02T17:54:51.470Z,69.36
2022-10-02T18:00:08.743Z,69.88
2022-10-02T18:05:35.809Z,70.25
2022-10-02T18:11:08.232Z,70.21
2022-10-02T18:16:29.915Z,73.08
2022-10-02T18:21:39.338Z,73.24
2022-10-02T18:26:53.441Z,73.49
2022-10-02T18:32:19.380Z,70.37
2022-10-02T18:37:38.095Z,71.11
2022-10-02T18:42:47.104Z,71.19
2022-10-02T18:48:09.070Z,70.80
2022-10-02T18:53:49.810Z,72.50
2022-10-02T18:59:22.318Z,73.20
2022-10-02T19:05:02.267Z,73.86
2022-10-02T19:10:30.068Z,73.76
2022-10-02T19:15:34.983Z,73.61
2022-10-02T19:20:59.168Z,73.81
2022-10-02T19:26:38.405Z,74.08
2022-10-02T19:31:42.726Z,73.94
2022-10-02T19:36:57.966Z,74.31
2022-10-02T19:42:06.557Z,73.29
2022-10-02T19:47:53.851Z,74.80
2022-10-02T19:53:09.426Z,74.11
2022-10-02T19:58:19.960Z,74.67
2022-10-02T20:03:25.905Z,75.66
2022-10-02T20:08:44.044Z,76.41
2022-10-02T20:13:59.100Z,75.40
2022-10-02T20:19:10.993Z,76.77
2022-10-02T20:24:38.695Z,77.67
2022-10-02T20:29:54.558Z,78.76
2022-10-02T20:35:22.277Z,78.67
2022-10-02T20:40:28.245Z,79.11
2022-10-02T20:45:52.401Z,78.86
2022-10-02T20:51:09.574Z,79.98
2022-10-02T20:56:49.197Z,81.25
2022-10-02T21:02:28.967Z,84.38
2022-10-02T21:08:00.120Z,83.80
2022-10-02T21:13:38.692Z,84.18
2022-10-02T21:19:33.606Z,84.08
2022-10-02T21:25:06.642Z,88.90
2022-10-02T21:30:16.208Z,90.19
2022-10-02T21:35:49.097Z,90.80
2022-10-02T21:41:10.967Z,91.54
2022-10-02T21:46:45.024Z,91.88
2022-10-02T21:52:43.893Z,90.47
2022-10-02T21:58:37.837Z,89.83
2022-10-02T22:04:20.262Z,88.72
2022-10-02T22:09:48.191Z,91.25
2022-10-02T22:14:59.269Z,91.55
2022-10-02T22:20:28.660Z,90.56
2022-10-02T22:26:08.165Z,90.05
2022-10-02T22:31:20.560Z,89.72
2022-10-02T22:36:48.477Z,89.13
2022-10-02T22:41:57.052Z,89.02
2022-10-02T22:47:05.676Z,89.09
2022-10-02T22:52:30.390Z,89.25
2022-10-02T22:57:46.258Z,89.65
2022-10-02T23:02:59.233Z,90.52
2022-10-02T23:08:19.134Z,89.88
2022-10-02T23:13:29.874Z,89.40
2022-10-02T23:18:45.983Z,88.77
2022-10-02T23:24:23.101Z,89.18
2022-10-02T23:29:49.999Z,89.50
2022-10-02T23:35:27.439Z,89.42
2022-10-02T23:41:29.593Z,89.37
2022-10-02T23:46:50.059Z,89.84
2022-10-02T23:52:08.864Z,90.61
2022-10-02T23:57:28.261Z,90.78
